createdAt,value
2023-03-13T00:02:24.779Z,67.42
2023-03-13T00:05:13.810Z,68.27
2023-03-13T00:08:02.045Z,67.37
2023-03-13T00:10:47.721Z,68.90
2023-03-13T00:13:29.872Z,67.52
2023-03-13T00:16:24.735Z,68.13
2023-03-13T00:19:15.654Z,68.97
2023-03-13T00:22:04.529Z,68.67
2023-03-13T00:24:54.704Z,67.96
2023-03-13T00:27:50.556Z,69.05
2023-03-13T00:30:39.732Z,68.62
2023-03-13T00:33:28.664Z,69.77
2023-03-13T00:36:21.647Z,70.02
2023-03-13T00:39:11.667Z,70.86
2023-03-13T00:41:53.899Z,70.25
2023-03-13T00:44:43.862Z,70.86
2023-03-13T00:47:25.955Z,71.15
2023-03-13T00:50:14.619Z,70.44
2023-03-13T00:52:56.929Z,71.67
2023-03-13T00:55:45.963Z,72.02
2023-03-13T00:58:37.020Z,71.37
2023-03-13T01:01:25.695Z,71.72
2023-03-13T01:04:18.736Z,72.24
2023-03-13T01:07:00.930Z,72.01
2023-03-13T01:09:49.688Z,72.40
2023-03-13T01:12:31.933Z,72.75
2023-03-13T01:15:20.663Z,73.22
2023-03-13T01:18:03.042Z,72.65
2023-03-13T01:20:51.711Z,73.00
2023-03-13T01:23:36.939Z,73.18
2023-03-13T01:26:25.631Z,73.83
2023-03-13T01:29:20.655Z,73.33
2023-03-13T01:32:09.697Z,72.71
2023-03-13T01:34:58.632Z,72.57
2023-03-13T01:37:47.649Z,72.35
2023-03-13T01:40:29.983Z,71.79
2023-03-13T01:43:39.705Z,71.23
2023-03-13T01:46:32.675Z,71.75
2023-03-13T01:49:37.732Z,71.48
2023-03-13T01:52:36.991Z,71.73
2023-03-13T01:55:45.695Z,71.67
2023-03-13T01:58:28.983Z,71.42
2023-03-13T02:01:17.710Z,71.05
2023-03-13T02:04:00.047Z,69.84
2023-03-13T02:06:51.744Z,71.07
2023-03-13T02:09:43.704Z,68.48
2023-03-13T02:12:44.997Z,67.99
2023-03-13T02:15:30.138Z,67.89
2023-03-13T02:18:20.615Z,68.39
2023-03-13T02:21:16.678Z,69.61
2023-03-13T02:24:28.039Z,68.05
2023-03-13T02:27:10.971Z,65.42
2023-03-13T02:30:01.012Z,62.23
2023-03-13T02:32:43.707Z,62.21
2023-03-13T02:35:26.168Z,59.35
2023-03-13T02:38:20.745Z,58.96
2023-03-13T02:41:04.187Z,59.09
2023-03-13T02:43:53.724Z,59.84
2023-03-13T02:46:56.073Z,57.82
2023-03-13T02:49:38.706Z,56.65
2023-03-13T02:52:27.627Z,53.98
2023-03-13T02:55:19.417Z,53.02
2023-03-13T02:58:08.778Z,54.28
2023-03-13T03:00:50.943Z,52.58
2023-03-13T03:03:39.764Z,51.61
2023-03-13T03:06:28.641Z,50.03
2023-03-13T03:09:20.733Z,48.65
2023-03-13T03:12:14.739Z,49.11
2023-03-13T03:14:56.988Z,49.18
2023-03-13T03:17:47.641Z,51.09
2023-03-13T03:20:37.773Z,51.57
2023-03-13T03:23:21.013Z,52.19
2023-03-13T03:26:10.628Z,52.26
2023-03-13T03:28:59.749Z,50.79
2023-03-13T03:31:41.920Z,52.41
2023-03-13T03:34:30.893Z,52.34
2023-03-13T03:37:18.911Z,50.95
2023-03-13T03:40:01.769Z,49.04
2023-03-13T03:42:49.933Z,49.55
2023-03-13T03:45:32.720Z,47.50
2023-03-13T03:48:14.914Z,48.16
2023-03-13T03:51:03.715Z,47.59
2023-03-13T03:53:57.017Z,46.83
2023-03-13T03:56:41.677Z,45.38
2023-03-13T03:59:29.968Z,45.67
2023-03-13T04:02:15.721Z,47.65
2023-03-13T04:05:04.681Z,46.47
2023-03-13T04:07:55.652Z,46.79
2023-03-13T04:10:45.693Z,45.87
2023-03-13T04:13:30.932Z,49.38
2023-03-13T04:16:19.740Z,49.02
2023-03-13T04:19:03.991Z,49.05
2023-03-13T04:21:52.689Z,50.04
2023-03-13T04:24:35.023Z,49.77
2023-03-13T04:27:24.742Z,49.48
2023-03-13T04:30:20.624Z,49.87
2023-03-13T04:33:29.347Z,49.36
2023-03-13T04:36:30.906Z,50.78
2023-03-13T04:39:27.061Z,49.40
2023-03-13T04:42:33.735Z,49.80
2023-03-13T04:45:40.847Z,50.98
2023-03-13T04:48:41.501Z,48.98
2023-03-13T04:51:47.278Z,50.07
2023-03-13T04:54:54.658Z,48.54
2023-03-13T04:58:00.391Z,47.87
2023-03-13T05:01:00.792Z,49.36
2023-03-13T05:04:06.109Z,48.87
2023-03-13T05:07:12.709Z,45.77
2023-03-13T05:10:24.631Z,45.45
2023-03-13T05:13:39.731Z,46.20
2023-03-13T05:16:41.907Z,44.87
2023-03-13T05:20:02.738Z,45.50
2023-03-13T05:23:07.892Z,45.04
2023-03-13T05:26:31.756Z,44.56
2023-03-13T05:29:26.524Z,45.71
2023-03-13T05:32:21.702Z,43.52
2023-03-13T05:35:24.092Z,44.14
2023-03-13T05:38:28.099Z,42.24
2023-03-13T05:41:33.064Z,41.07
2023-03-13T05:44:40.654Z,40.71
2023-03-13T05:47:36.122Z,40.82
2023-03-13T05:50:48.684Z,38.84
2023-03-13T05:53:57.681Z,39.13
2023-03-13T05:56:58.834Z,39.57
2023-03-13T06:00:05.762Z,38.10
2023-03-13T06:03:06.959Z,39.40
2023-03-13T06:05:57.660Z,37.66
2023-03-13T06:08:59.922Z,37.92
2023-03-13T06:11:50.782Z,38.37
2023-03-13T06:14:32.841Z,38.41
2023-03-13T06:17:42.636Z,37.77
2023-03-13T06:20:31.019Z,36.29
2023-03-13T06:23:14.000Z,38.07
2023-03-13T06:26:02.965Z,33.60
2023-03-13T06:28:57.701Z,36.65
2023-03-13T06:31:47.144Z,34.28
2023-03-13T06:34:30.865Z,33.86
2023-03-13T06:37:18.987Z,33.68
2023-03-13T06:40:01.639Z,33.63
2023-03-13T06:42:51.020Z,33.28
2023-03-13T06:45:33.684Z,36.16
2023-03-13T06:48:16.028Z,35.19
2023-03-13T06:51:05.632Z,34.08
2023-03-13T06:53:55.669Z,34.48
2023-03-13T06:56:44.728Z,32.90
2023-03-13T06:59:26.928Z,34.82
2023-03-13T07:02:15.644Z,32.17
2023-03-13T07:05:06.896Z,34.04
2023-03-13T07:07:49.653Z,33.93
2023-03-13T07:10:41.126Z,34.54
2023-03-13T07:13:23.633Z,33.43
2023-03-13T07:16:52.077Z,34.22
2023-03-13T07:19:41.733Z,33.13
2023-03-13T07:22:24.305Z,37.09
2023-03-13T07:25:13.750Z,34.79
2023-03-13T07:27:59.010Z,33.46
2023-03-13T07:30:47.762Z,37.24
2023-03-13T07:33:29.942Z,36.79
2023-03-13T07:36:20.753Z,33.66
2023-03-13T07:39:02.946Z,35.03
2023-03-13T07:41:51.743Z,34.38
2023-03-13T07:44:33.968Z,34.25
2023-03-13T07:47:22.756Z,33.11
2023-03-13T07:50:05.430Z,34.00
2023-03-13T07:52:54.682Z,33.17
2023-03-13T07:55:36.964Z,34.76
2023-03-13T07:58:25.661Z,34.72
2023-03-13T08:01:09.000Z,34.64
2023-03-13T08:04:02.096Z,34.67
2023-03-13T08:06:43.987Z,35.40
2023-03-13T08:09:32.768Z,34.39
2023-03-13T08:12:15.936Z,35.92
2023-03-13T08:15:04.663Z,34.99
2023-03-13T08:17:59.534Z,34.00
2023-03-13T08:20:48.671Z,33.78
2023-03-13T08:23:31.028Z,34.10
2023-03-13T08:26:25.743Z,34.12
2023-03-13T08:29:11.033Z,34.38
2023-03-13T08:32:00.699Z,34.92
2023-03-13T08:34:42.881Z,36.39
2023-03-13T08:37:31.748Z,34.75
2023-03-13T08:40:15.120Z,33.02
2023-03-13T08:43:03.693Z,34.61
2023-03-13T08:45:46.008Z,33.98
2023-03-13T08:48:34.674Z,34.91
2023-03-13T08:51:18.934Z,34.78
2023-03-13T08:54:07.790Z,33.04
2023-03-13T08:56:50.116Z,34.51
2023-03-13T08:59:38.669Z,34.00
2023-03-13T09:02:28.701Z,33.59
2023-03-13T09:05:17.913Z,35.15
2023-03-13T09:08:01.614Z,35.17
2023-03-13T09:10:49.935Z,31.21
2023-03-13T09:13:35.908Z,31.06
2023-03-13T09:16:27.936Z,30.28
2023-03-13T09:19:16.707Z,31.53
2023-03-13T09:21:59.004Z,31.35
2023-03-13T09:24:49.078Z,32.65
2023-03-13T09:27:31.017Z,31.42
2023-03-13T09:30:19.638Z,32.11
2023-03-13T09:33:02.120Z,30.87
2023-03-13T09:35:51.704Z,33.28
2023-03-13T09:38:36.220Z,32.38
2023-03-13T09:41:48.937Z,31.18
2023-03-13T09:44:45.553Z,31.30
2023-03-13T09:47:49.723Z,31.31
2023-03-13T09:50:41.984Z,32.51
2023-03-13T09:54:04.498Z,32.15
2023-03-13T09:57:04.941Z,30.49
2023-03-13T10:00:08.824Z,32.06
2023-03-13T10:03:20.983Z,31.96
2023-03-13T10:06:37.662Z,32.73
2023-03-13T10:09:41.972Z,32.38
2023-03-13T10:12:37.726Z,31.33
2023-03-13T10:15:51.037Z,31.90
2023-03-13T10:18:40.708Z,32.63
2023-03-13T10:21:27.041Z,34.15
2023-03-13T10:24:45.666Z,31.45
2023-03-13T10:27:27.930Z,32.50
2023-03-13T10:30:28.870Z,33.78
2023-03-13T10:33:16.888Z,34.69
2023-03-13T10:36:23.673Z,34.06
2023-03-13T10:39:05.946Z,33.71
2023-03-13T10:41:56.823Z,34.17
2023-03-13T10:44:40.963Z,33.71
2023-03-13T10:47:29.733Z,33.75
2023-03-13T10:50:13.000Z,33.35
2023-03-13T10:53:02.632Z,34.89
2023-03-13T10:55:51.934Z,34.12
2023-03-13T10:58:50.688Z,34.70
2023-03-13T11:01:48.958Z,33.44
2023-03-13T11:04:41.670Z,33.86
2023-03-13T11:07:29.947Z,33.85
2023-03-13T11:10:31.699Z,35.29
2023-03-13T11:13:13.992Z,35.92
2023-03-13T11:16:21.828Z,35.87
2023-03-13T11:19:16.283Z,35.14
2023-03-13T11:22:23.724Z,37.12
2023-03-13T11:25:28.931Z,36.89
2023-03-13T11:28:22.677Z,37.54
2023-03-13T11:31:14.042Z,38.30
2023-03-13T11:34:23.642Z,37.75
2023-03-13T11:37:20.428Z,37.82
2023-03-13T11:40:28.649Z,38.94
2023-03-13T11:43:27.934Z,38.09
2023-03-13T11:47:05.712Z,38.30
2023-03-13T11:50:04.979Z,38.65
2023-03-13T11:53:11.751Z,39.28
2023-03-13T11:56:18.391Z,37.31
2023-03-13T11:59:28.618Z,37.63
2023-03-13T12:02:26.086Z,39.38
2023-03-13T12:05:23.080Z,37.31
2023-03-13T12:08:18.948Z,37.46
2023-03-13T12:11:39.670Z,35.53
2023-03-13T12:14:37.928Z,35.89
2023-03-13T12:17:55.768Z,35.31
2023-03-13T12:20:54.618Z,36.25
2023-03-13T12:24:02.825Z,35.19
2023-03-13T12:27:15.663Z,36.40
2023-03-13T12:30:25.901Z,34.82
2023-03-13T12:33:32.711Z,35.90
2023-03-13T12:36:27.456Z,34.29
2023-03-13T12:40:02.029Z,35.23
2023-03-13T12:43:19.987Z,36.52
2023-03-13T12:46:14.738Z,37.37
2023-03-13T12:48:59.997Z,37.95
2023-03-13T12:52:05.805Z,39.24
2023-03-13T12:54:54.012Z,39.96
2023-03-13T12:58:15.624Z,41.27
2023-03-13T13:01:00.060Z,40.83
2023-03-13T13:03:59.736Z,41.08
2023-03-13T13:07:09.600Z,42.44
2023-03-13T13:10:35.323Z,42.93
2023-03-13T13:13:26.464Z,44.51
2023-03-13T13:16:25.765Z,44.78
2023-03-13T13:19:33.452Z,45.14
2023-03-13T13:22:45.603Z,47.43
2023-03-13T13:25:37.044Z,45.74
2023-03-13T13:28:36.717Z,47.42
2023-03-13T13:32:05.312Z,48.30
2023-03-13T13:35:06.677Z,47.27
2023-03-13T13:37:56.920Z,48.09
2023-03-13T13:40:40.703Z,48.80
2023-03-13T13:43:25.914Z,48.17
2023-03-13T13:46:16.688Z,49.19
2023-03-13T13:49:15.656Z,49.12
2023-03-13T13:52:21.266Z,49.36
2023-03-13T13:55:10.647Z,49.55
2023-03-13T13:57:53.937Z,50.64
2023-03-13T14:00:53.660Z,50.52
2023-03-13T14:03:43.185Z,50.31
2023-03-13T14:06:38.643Z,51.34
2023-03-13T14:09:49.060Z,51.02
2023-03-13T14:12:39.814Z,52.62
2023-03-13T14:15:30.027Z,53.79
2023-03-13T14:18:24.717Z,53.30
2023-03-13T14:21:23.601Z,54.06
2023-03-13T14:24:21.590Z,54.30
2023-03-13T14:27:03.920Z,54.89
2023-03-13T14:30:16.721Z,54.03
2023-03-13T14:33:00.291Z,54.69
2023-03-13T14:35:50.765Z,56.32
2023-03-13T14:38:35.082Z,55.98
2023-03-13T14:41:40.653Z,55.40
2023-03-13T14:44:36.988Z,55.28
2023-03-13T14:47:33.701Z,56.52
2023-03-13T14:50:21.873Z,57.24
2023-03-13T14:53:19.821Z,57.25
2023-03-13T14:56:23.244Z,58.08
2023-03-13T14:59:32.628Z,58.26
2023-03-13T15:02:24.222Z,58.71
2023-03-13T15:05:17.680Z,58.40
2023-03-13T15:08:01.957Z,58.59
2023-03-13T15:10:51.770Z,58.69
2023-03-13T15:13:43.974Z,59.38
2023-03-13T15:16:34.787Z,58.69
2023-03-13T15:19:29.526Z,59.53
2023-03-13T15:22:24.012Z,59.27
2023-03-13T15:25:07.905Z,60.37
2023-03-13T15:27:57.733Z,60.05
2023-03-13T15:30:39.919Z,59.78
2023-03-13T15:33:30.673Z,59.98
2023-03-13T15:36:13.190Z,61.18
2023-03-13T15:39:01.691Z,61.11
2023-03-13T15:41:44.126Z,61.09
2023-03-13T15:44:32.730Z,60.99
2023-03-13T15:47:18.940Z,61.48
2023-03-13T15:50:07.614Z,61.75
2023-03-13T15:52:49.983Z,61.30
2023-03-13T15:55:40.599Z,61.29
2023-03-13T15:58:23.099Z,61.60
2023-03-13T16:01:11.794Z,61.85
2023-03-13T16:03:54.271Z,62.41
2023-03-13T16:06:43.688Z,62.82
2023-03-13T16:09:26.034Z,62.03
2023-03-13T16:12:15.605Z,63.24
2023-03-13T16:15:04.675Z,63.49
2023-03-13T16:17:59.561Z,63.96
2023-03-13T16:20:54.741Z,63.67
2023-03-13T16:23:42.985Z,64.05
2023-03-13T16:26:32.030Z,63.93
2023-03-13T16:29:23.107Z,63.14
2023-03-13T16:32:05.606Z,63.13
2023-03-13T16:34:54.441Z,63.19
2023-03-13T16:37:37.653Z,63.09
2023-03-13T16:40:33.080Z,63.09
2023-03-13T16:43:14.665Z,64.09
2023-03-13T16:46:07.424Z,63.51
2023-03-13T16:48:50.713Z,63.38
2023-03-13T16:51:39.983Z,63.36
2023-03-13T16:54:22.690Z,63.65
2023-03-13T16:57:10.994Z,62.83
2023-03-13T16:59:53.653Z,63.15
2023-03-13T17:02:38.522Z,62.86
2023-03-13T17:05:27.640Z,63.08
2023-03-13T17:08:19.962Z,62.88
2023-03-13T17:11:01.616Z,61.98
2023-03-13T17:13:52.088Z,60.83
2023-03-13T17:16:40.658Z,60.96
2023-03-13T17:19:36.485Z,61.02
2023-03-13T17:22:26.631Z,60.63
2023-03-13T17:25:09.079Z,59.70
2023-03-13T17:27:57.619Z,58.68
2023-03-13T17:30:41.845Z,60.61
2023-03-13T17:33:30.634Z,60.59
2023-03-13T17:36:28.149Z,59.67
2023-03-13T17:39:21.579Z,59.88
2023-03-13T17:42:06.596Z,58.57
2023-03-13T17:44:55.917Z,59.25
2023-03-13T17:47:38.246Z,59.81
2023-03-13T17:50:30.638Z,58.72
2023-03-13T17:53:12.939Z,60.17
2023-03-13T17:56:01.637Z,59.82
2023-03-13T17:58:45.543Z,61.33
2023-03-13T18:01:39.639Z,61.02
2023-03-13T18:04:28.608Z,59.52
2023-03-13T18:07:53.275Z,58.69
2023-03-13T18:10:37.870Z,59.74
2023-03-13T18:13:26.592Z,61.59
2023-03-13T18:16:08.907Z,60.04
2023-03-13T18:19:03.619Z,60.46
2023-03-13T18:22:10.488Z,61.63
2023-03-13T18:24:59.650Z,58.63
2023-03-13T18:27:42.306Z,60.33
2023-03-13T18:30:32.622Z,61.04
2023-03-13T18:33:17.603Z,60.73
2023-03-13T18:36:06.603Z,60.91
2023-03-13T18:38:49.911Z,61.51
2023-03-13T18:41:38.598Z,61.83
2023-03-13T18:44:21.977Z,61.28
2023-03-13T18:47:21.866Z,61.14
2023-03-13T18:50:04.430Z,61.63
2023-03-13T18:52:53.677Z,62.04
2023-03-13T18:55:38.173Z,62.85
2023-03-13T18:58:26.609Z,62.85
2023-03-13T19:01:08.995Z,63.05
2023-03-13T19:03:59.432Z,63.26
2023-03-13T19:06:44.151Z,63.99
2023-03-13T19:09:43.261Z,64.22
2023-03-13T19:12:25.911Z,63.67
2023-03-13T19:15:14.671Z,63.59
2023-03-13T19:17:57.217Z,64.25
2023-03-13T19:20:51.631Z,64.14
2023-03-13T19:23:33.828Z,63.90
2023-03-13T19:26:31.677Z,63.72
2023-03-13T19:29:30.908Z,66.58
2023-03-13T19:32:14.645Z,62.75
2023-03-13T19:34:56.795Z,64.23
2023-03-13T19:37:45.650Z,64.53
2023-03-13T19:40:34.846Z,63.06
2023-03-13T19:43:16.612Z,64.11
2023-03-13T19:46:04.868Z,64.43
2023-03-13T19:48:47.058Z,66.14
2023-03-13T19:51:37.890Z,64.46
2023-03-13T19:54:20.608Z,65.05
2023-03-13T19:57:02.921Z,65.64
2023-03-13T19:59:54.325Z,65.87
2023-03-13T20:02:37.001Z,65.68
2023-03-13T20:05:25.640Z,64.98
2023-03-13T20:08:07.624Z,62.49
2023-03-13T20:10:55.896Z,62.78
2023-03-13T20:13:38.660Z,59.32
2023-03-13T20:16:24.630Z,59.34
2023-03-13T20:19:14.634Z,61.67
2023-03-13T20:22:03.565Z,59.49
2023-03-13T20:24:52.618Z,59.04
2023-03-13T20:27:34.934Z,61.31
2023-03-13T20:30:24.697Z,59.19
2023-03-13T20:33:13.047Z,58.45
2023-03-13T20:35:54.708Z,59.04
2023-03-13T20:38:43.644Z,58.75
2023-03-13T20:41:36.813Z,59.65
2023-03-13T20:44:24.908Z,58.76
2023-03-13T20:47:07.649Z,59.34
2023-03-13T20:49:49.772Z,60.56
2023-03-13T20:52:38.612Z,55.44
2023-03-13T20:55:27.630Z,55.62
2023-03-13T20:58:09.888Z,55.17
2023-03-13T21:00:58.880Z,55.10
2023-03-13T21:03:40.954Z,56.46
2023-03-13T21:06:29.618Z,55.55
2023-03-13T21:09:11.893Z,56.73
2023-03-13T21:12:00.612Z,56.49
2023-03-13T21:14:43.536Z,59.64
2023-03-13T21:17:33.643Z,54.33
2023-03-13T21:20:29.506Z,55.30
2023-03-13T21:23:18.638Z,55.30
2023-03-13T21:26:01.960Z,54.63
2023-03-13T21:28:50.613Z,58.39
2023-03-13T21:31:32.952Z,52.86
2023-03-13T21:34:21.681Z,52.90
2023-03-13T21:37:03.912Z,53.60
2023-03-13T21:39:53.609Z,53.79
2023-03-13T21:42:37.113Z,54.18
2023-03-13T21:45:25.615Z,58.33
2023-03-13T21:48:08.949Z,53.41
2023-03-13T21:51:00.593Z,53.36
2023-03-13T21:53:45.461Z,54.69
2023-03-13T21:56:34.683Z,54.80
2023-03-13T21:59:18.134Z,54.60
2023-03-13T22:02:06.630Z,54.37
2023-03-13T22:04:48.945Z,54.39
2023-03-13T22:07:38.672Z,55.62
2023-03-13T22:10:27.565Z,55.78
2023-03-13T22:13:18.570Z,56.17
2023-03-13T22:16:03.752Z,56.63
2023-03-13T22:18:52.654Z,56.49
2023-03-13T22:21:41.671Z,56.97
2023-03-13T22:24:23.931Z,57.16
2023-03-13T22:27:12.676Z,57.44
2023-03-13T22:30:01.652Z,57.77
2023-03-13T22:32:43.924Z,57.27
2023-03-13T22:35:32.674Z,57.78
2023-03-13T22:38:14.889Z,58.01
2023-03-13T22:41:14.632Z,57.68
2023-03-13T22:43:56.883Z,58.66
2023-03-13T22:46:45.660Z,58.53
2023-03-13T22:49:27.882Z,59.60
2023-03-13T22:52:16.683Z,59.95
2023-03-13T22:54:58.991Z,59.18
2023-03-13T22:57:47.559Z,59.28
2023-03-13T23:00:29.897Z,60.03
2023-03-13T23:03:18.764Z,59.97
2023-03-13T23:06:07.529Z,60.63
2023-03-13T23:08:57.034Z,60.91
2023-03-13T23:11:42.042Z,59.96
2023-03-13T23:14:30.672Z,60.86
2023-03-13T23:17:12.878Z,61.98
2023-03-13T23:20:01.575Z,60.99
2023-03-13T23:22:50.590Z,61.82
2023-03-13T23:25:38.979Z,61.31
2023-03-13T23:28:21.673Z,60.91
2023-03-13T23:31:30.936Z,60.87
2023-03-13T23:34:13.549Z,60.25
2023-03-13T23:37:01.932Z,60.41
2023-03-13T23:39:43.628Z,60.51
2023-03-13T23:42:32.118Z,60.75
2023-03-13T23:45:14.585Z,60.92
2023-03-13T23:48:03.907Z,61.46
2023-03-13T23:50:46.635Z,62.06
2023-03-13T23:53:34.912Z,61.88
2023-03-13T23:56:18.585Z,63.07
2023-03-13T23:59:07.869Z,64.14
